sensor_id;sensor_type;location;lat;lon;timestamp;P1;durP1;ratioP1;P2;durP2;ratioP2
66093;SDS011;52876;49.394;10.892;2022-10-26T00:00:10;4.03;;;3.70;;
66093;SDS011;52876;49.394;10.892;2022-10-26T00:02:38;3.63;;;3.33;;
66093;SDS011;52876;49.394;10.892;2022-10-26T00:05:06;4.77;;;4.20;;
66093;SDS011;52876;49.394;10.892;2022-10-26T00:07:34;4.83;;;4.07;;
66093;SDS011;52876;49.394;10.892;2022-10-26T00:10:00;4.57;;;4.20;;
66093;SDS011;52876;49.394;10.892;2022-10-26T00:12:28;4.50;;;4.07;;
66093;SDS011;52876;49.394;10.892;2022-10-26T00:14:54;4.60;;;3.97;;
66093;SDS011;52876;49.394;10.892;2022-10-26T00:17:19;3.70;;;3.40;;
66093;SDS011;52876;49.394;10.892;2022-10-26T00:19:45;4.10;;;3.27;;
66093;SDS011;52876;49.394;10.892;2022-10-26T00:22:11;4.90;;;3.53;;
66093;SDS011;52876;49.394;10.892;2022-10-26T00:24:37;3.70;;;3.23;;
66093;SDS011;52876;49.394;10.892;2022-10-26T00:27:04;3.80;;;2.97;;
66093;SDS011;52876;49.394;10.892;2022-10-26T00:29:31;3.80;;;3.50;;
66093;SDS011;52876;49.394;10.892;2022-10-26T00:31:57;3.67;;;3.37;;
66093;SDS011;52876;49.394;10.892;2022-10-26T00:34:23;3.50;;;3.20;;
66093;SDS011;52876;49.394;10.892;2022-10-26T00:36:50;4.90;;;3.53;;
66093;SDS011;52876;49.394;10.892;2022-10-26T00:39:16;4.20;;;3.63;;
66093;SDS011;52876;49.394;10.892;2022-10-26T00:41:43;4.87;;;3.77;;
66093;SDS011;52876;49.394;10.892;2022-10-26T00:47:30;4.10;;;3.83;;
66093;SDS011;52876;49.394;10.892;2022-10-26T00:50:03;5.40;;;4.13;;
66093;SDS011;52876;49.394;10.892;2022-10-26T00:52:34;6.87;;;4.50;;
66093;SDS011;52876;49.394;10.892;2022-10-26T00:55:01;4.27;;;3.93;;
66093;SDS011;52876;49.394;10.892;2022-10-26T00:57:30;6.30;;;4.10;;
66093;SDS011;52876;49.394;10.892;2022-10-26T00:59:56;5.27;;;4.77;;
66093;SDS011;52876;49.394;10.892;2022-10-26T01:02:24;5.23;;;4.07;;
66093;SDS011;52876;49.394;10.892;2022-10-26T01:04:51;5.33;;;4.83;;
66093;SDS011;52876;49.394;10.892;2022-10-26T01:07:18;4.10;;;3.57;;
66093;SDS011;52876;49.394;10.892;2022-10-26T01:09:44;4.30;;;3.87;;
66093;SDS011;52876;49.394;10.892;2022-10-26T01:12:10;6.40;;;4.17;;
66093;SDS011;52876;49.394;10.892;2022-10-26T01:14:36;5.47;;;3.50;;
66093;SDS011;52876;49.394;10.892;2022-10-26T01:17:06;3.90;;;2.90;;
66093;SDS011;52876;49.394;10.892;2022-10-26T01:22:43;3.33;;;3.03;;
66093;SDS011;52876;49.394;10.892;2022-10-26T01:25:17;3.30;;;3.10;;
66093;SDS011;52876;49.394;10.892;2022-10-26T01:28:00;2.97;;;2.67;;
66093;SDS011;52876;49.394;10.892;2022-10-26T01:30:34;3.47;;;3.27;;
66093;SDS011;52876;49.394;10.892;2022-10-26T01:33:07;3.50;;;3.20;;
66093;SDS011;52876;49.394;10.892;2022-10-26T01:35:40;3.40;;;3.10;;
66093;SDS011;52876;49.394;10.892;2022-10-26T01:38:14;4.77;;;3.27;;
66093;SDS011;52876;49.394;10.892;2022-10-26T01:40:45;3.87;;;3.20;;
66093;SDS011;52876;49.394;10.892;2022-10-26T01:43:18;3.73;;;2.70;;
66093;SDS011;52876;49.394;10.892;2022-10-26T01:45:47;3.57;;;3.13;;
66093;SDS011;52876;49.394;10.892;2022-10-26T01:48:17;3.10;;;2.90;;
66093;SDS011;52876;49.394;10.892;2022-10-26T01:50:47;3.93;;;3.63;;
66093;SDS011;52876;49.394;10.892;2022-10-26T01:53:17;4.73;;;3.77;;
66093;SDS011;52876;49.394;10.892;2022-10-26T01:55:45;5.13;;;3.30;;
66093;SDS011;52876;49.394;10.892;2022-10-26T01:58:17;3.33;;;3.00;;
66093;SDS011;52876;49.394;10.892;2022-10-26T02:01:12;3.40;;;3.10;;
66093;SDS011;52876;49.394;10.892;2022-10-26T02:03:48;4.27;;;3.40;;
66093;SDS011;52876;49.394;10.892;2022-10-26T02:06:21;3.77;;;3.47;;
66093;SDS011;52876;49.394;10.892;2022-10-26T02:08:55;3.50;;;2.97;;
66093;SDS011;52876;49.394;10.892;2022-10-26T02:11:31;3.63;;;3.33;;
66093;SDS011;52876;49.394;10.892;2022-10-26T02:14:02;6.67;;;3.63;;
66093;SDS011;52876;49.394;10.892;2022-10-26T02:16:39;4.30;;;3.90;;
66093;SDS011;52876;49.394;10.892;2022-10-26T02:19:14;5.87;;;3.77;;
66093;SDS011;52876;49.394;10.892;2022-10-26T02:21:51;5.07;;;4.00;;
66093;SDS011;52876;49.394;10.892;2022-10-26T02:24:21;4.47;;;4.00;;
66093;SDS011;52876;49.394;10.892;2022-10-26T02:26:50;4.00;;;3.70;;
66093;SDS011;52876;49.394;10.892;2022-10-26T02:29:18;4.13;;;3.40;;
66093;SDS011;52876;49.394;10.892;2022-10-26T02:31:47;3.80;;;3.40;;
66093;SDS011;52876;49.394;10.892;2022-10-26T02:34:15;3.70;;;3.20;;
66093;SDS011;52876;49.394;10.892;2022-10-26T02:36:45;4.03;;;3.30;;
66093;SDS011;52876;49.394;10.892;2022-10-26T02:39:14;3.13;;;2.83;;
66093;SDS011;52876;49.394;10.892;2022-10-26T02:41:43;4.33;;;3.53;;
66093;SDS011;52876;49.394;10.892;2022-10-26T02:44:13;4.77;;;3.03;;
66093;SDS011;52876;49.394;10.892;2022-10-26T02:46:45;3.00;;;2.70;;
66093;SDS011;52876;49.394;10.892;2022-10-26T02:49:13;2.97;;;2.57;;
66093;SDS011;52876;49.394;10.892;2022-10-26T02:51:42;3.37;;;3.07;;
66093;SDS011;52876;49.394;10.892;2022-10-26T02:54:13;3.80;;;3.50;;
66093;SDS011;52876;49.394;10.892;2022-10-26T02:56:43;2.87;;;2.53;;
66093;SDS011;52876;49.394;10.892;2022-10-26T02:59:12;2.93;;;2.50;;
66093;SDS011;52876;49.394;10.892;2022-10-26T03:01:40;4.40;;;3.70;;
66093;SDS011;52876;49.394;10.892;2022-10-26T03:04:08;6.00;;;3.87;;
66093;SDS011;52876;49.394;10.892;2022-10-26T03:06:34;2.83;;;2.63;;
66093;SDS011;52876;49.394;10.892;2022-10-26T03:09:00;3.57;;;3.27;;
66093;SDS011;52876;49.394;10.892;2022-10-26T03:11:26;4.10;;;3.00;;
66093;SDS011;52876;49.394;10.892;2022-10-26T03:13:51;6.33;;;3.50;;
66093;SDS011;52876;49.394;10.892;2022-10-26T03:16:17;3.90;;;3.13;;
66093;SDS011;52876;49.394;10.892;2022-10-26T03:18:43;3.03;;;2.73;;
66093;SDS011;52876;49.394;10.892;2022-10-26T03:21:12;3.40;;;2.57;;
66093;SDS011;52876;49.394;10.892;2022-10-26T03:23:38;4.00;;;3.63;;
66093;SDS011;52876;49.394;10.892;2022-10-26T03:26:03;7.77;;;5.57;;
66093;SDS011;52876;49.394;10.892;2022-10-26T03:28:29;5.73;;;5.23;;
66093;SDS011;52876;49.394;10.892;2022-10-26T03:30:57;7.93;;;5.50;;
66093;SDS011;52876;49.394;10.892;2022-10-26T03:33:22;9.40;;;6.00;;
66093;SDS011;52876;49.394;10.892;2022-10-26T03:35:53;11.10;;;7.07;;
66093;SDS011;52876;49.394;10.892;2022-10-26T03:38:20;6.83;;;6.33;;
66093;SDS011;52876;49.394;10.892;2022-10-26T03:40:48;8.33;;;5.40;;
66093;SDS011;52876;49.394;10.892;2022-10-26T03:43:14;6.50;;;5.90;;
66093;SDS011;52876;49.394;10.892;2022-10-26T03:45:41;6.73;;;6.10;;
66093;SDS011;52876;49.394;10.892;2022-10-26T03:48:07;13.53;;;7.00;;
66093;SDS011;52876;49.394;10.892;2022-10-26T03:50:32;5.97;;;5.57;;
66093;SDS011;52876;49.394;10.892;2022-10-26T03:52:58;6.87;;;5.20;;
66093;SDS011;52876;49.394;10.892;2022-10-26T03:55:26;7.13;;;4.60;;
66093;SDS011;52876;49.394;10.892;2022-10-26T03:57:51;3.90;;;3.53;;
66093;SDS011;52876;49.394;10.892;2022-10-26T04:00:19;6.27;;;3.50;;
66093;SDS011;52876;49.394;10.892;2022-10-26T04:02:52;3.10;;;2.80;;
66093;SDS011;52876;49.394;10.892;2022-10-26T04:05:19;3.70;;;3.37;;
66093;SDS011;52876;49.394;10.892;2022-10-26T04:07:50;4.10;;;3.30;;
66093;SDS011;52876;49.394;10.892;2022-10-26T04:10:16;3.70;;;2.60;;
66093;SDS011;52876;49.394;10.892;2022-10-26T04:12:45;3.23;;;2.93;;
66093;SDS011;52876;49.394;10.892;2022-10-26T04:15:11;4.60;;;4.00;;
66093;SDS011;52876;49.394;10.892;2022-10-26T04:17:38;3.20;;;2.90;;
66093;SDS011;52876;49.394;10.892;2022-10-26T04:20:04;5.40;;;4.10;;
66093;SDS011;52876;49.394;10.892;2022-10-26T04:22:32;5.90;;;5.50;;
66093;SDS011;52876;49.394;10.892;2022-10-26T04:24:58;5.93;;;5.37;;
66093;SDS011;52876;49.394;10.892;2022-10-26T04:27:24;10.07;;;6.20;;
66093;SDS011;52876;49.394;10.892;2022-10-26T04:29:51;6.10;;;5.53;;
66093;SDS011;52876;49.394;10.892;2022-10-26T04:32:18;6.70;;;5.57;;
66093;SDS011;52876;49.394;10.892;2022-10-26T04:34:44;6.30;;;5.50;;
66093;SDS011;52876;49.394;10.892;2022-10-26T04:37:11;5.67;;;5.10;;
66093;SDS011;52876;49.394;10.892;2022-10-26T04:39:37;14.67;;;9.80;;
66093;SDS011;52876;49.394;10.892;2022-10-26T04:42:03;9.83;;;8.10;;
66093;SDS011;52876;49.394;10.892;2022-10-26T04:44:28;9.80;;;8.17;;
66093;SDS011;52876;49.394;10.892;2022-10-26T04:46:57;6.93;;;6.00;;
66093;SDS011;52876;49.394;10.892;2022-10-26T04:49:22;8.43;;;7.73;;
66093;SDS011;52876;49.394;10.892;2022-10-26T04:51:48;7.73;;;7.13;;
66093;SDS011;52876;49.394;10.892;2022-10-26T04:54:14;5.77;;;5.37;;
66093;SDS011;52876;49.394;10.892;2022-10-26T04:56:41;6.43;;;5.17;;
66093;SDS011;52876;49.394;10.892;2022-10-26T04:59:07;9.03;;;6.97;;
66093;SDS011;52876;49.394;10.892;2022-10-26T05:01:33;6.87;;;6.27;;
66093;SDS011;52876;49.394;10.892;2022-10-26T05:04:00;7.63;;;5.90;;
66093;SDS011;52876;49.394;10.892;2022-10-26T05:06:26;6.50;;;5.90;;
66093;SDS011;52876;49.394;10.892;2022-10-26T05:08:51;4.20;;;3.90;;
66093;SDS011;52876;49.394;10.892;2022-10-26T05:11:19;4.30;;;3.80;;
66093;SDS011;52876;49.394;10.892;2022-10-26T05:13:45;5.53;;;4.30;;
66093;SDS011;52876;49.394;10.892;2022-10-26T05:16:11;3.67;;;3.47;;
66093;SDS011;52876;49.394;10.892;2022-10-26T05:18:37;4.10;;;3.70;;
66093;SDS011;52876;49.394;10.892;2022-10-26T05:21:04;4.20;;;3.53;;
66093;SDS011;52876;49.394;10.892;2022-10-26T05:23:30;4.60;;;4.27;;
66093;SDS011;52876;49.394;10.892;2022-10-26T05:25:56;5.67;;;3.80;;
66093;SDS011;52876;49.394;10.892;2022-10-26T05:28:21;5.03;;;4.63;;
66093;SDS011;52876;49.394;10.892;2022-10-26T05:30:48;5.93;;;5.37;;
66093;SDS011;52876;49.394;10.892;2022-10-26T05:33:14;8.70;;;7.33;;
66093;SDS011;52876;49.394;10.892;2022-10-26T05:35:40;12.00;;;7.67;;
66093;SDS011;52876;49.394;10.892;2022-10-26T05:38:07;9.73;;;7.90;;
66093;SDS011;52876;49.394;10.892;2022-10-26T05:40:35;7.70;;;7.07;;
66093;SDS011;52876;49.394;10.892;2022-10-26T05:43:01;7.93;;;7.23;;
66093;SDS011;52876;49.394;10.892;2022-10-26T05:45:27;8.60;;;7.80;;
66093;SDS011;52876;49.394;10.892;2022-10-26T05:47:53;8.03;;;7.23;;
66093;SDS011;52876;49.394;10.892;2022-10-26T05:50:22;7.53;;;6.83;;
66093;SDS011;52876;49.394;10.892;2022-10-26T05:52:48;7.80;;;7.03;;
66093;SDS011;52876;49.394;10.892;2022-10-26T05:55:16;4.93;;;4.47;;
66093;SDS011;52876;49.394;10.892;2022-10-26T05:57:44;6.37;;;4.60;;
66093;SDS011;52876;49.394;10.892;2022-10-26T06:00:14;4.50;;;4.10;;
66093;SDS011;52876;49.394;10.892;2022-10-26T06:02:46;5.80;;;4.33;;
66093;SDS011;52876;49.394;10.892;2022-10-26T06:05:25;4.60;;;4.20;;
66093;SDS011;52876;49.394;10.892;2022-10-26T06:07:52;6.27;;;3.87;;
66093;SDS011;52876;49.394;10.892;2022-10-26T06:10:20;4.37;;;3.23;;
66093;SDS011;52876;49.394;10.892;2022-10-26T06:12:48;5.73;;;3.70;;
66093;SDS011;52876;49.394;10.892;2022-10-26T06:15:15;3.90;;;3.60;;
66093;SDS011;52876;49.394;10.892;2022-10-26T06:17:46;4.13;;;3.80;;
66093;SDS011;52876;49.394;10.892;2022-10-26T06:20:24;4.43;;;3.30;;
66093;SDS011;52876;49.394;10.892;2022-10-26T06:23:04;4.13;;;3.70;;
66093;SDS011;52876;49.394;10.892;2022-10-26T06:25:53;3.33;;;3.13;;
66093;SDS011;52876;49.394;10.892;2022-10-26T06:28:28;4.07;;;3.73;;
66093;SDS011;52876;49.394;10.892;2022-10-26T06:31:00;3.33;;;3.13;;
66093;SDS011;52876;49.394;10.892;2022-10-26T06:33:26;3.30;;;3.10;;
66093;SDS011;52876;49.394;10.892;2022-10-26T06:35:56;4.43;;;3.20;;
66093;SDS011;52876;49.394;10.892;2022-10-26T06:38:29;4.40;;;2.80;;
66093;SDS011;52876;49.394;10.892;2022-10-26T06:41:02;3.43;;;2.90;;
66093;SDS011;52876;49.394;10.892;2022-10-26T06:43:29;3.00;;;2.80;;
66093;SDS011;52876;49.394;10.892;2022-10-26T06:46:00;3.03;;;2.83;;
66093;SDS011;52876;49.394;10.892;2022-10-26T06:48:34;3.33;;;2.93;;
66093;SDS011;52876;49.394;10.892;2022-10-26T06:51:09;3.10;;;2.90;;
66093;SDS011;52876;49.394;10.892;2022-10-26T06:53:40;4.30;;;3.00;;
66093;SDS011;52876;49.394;10.892;2022-10-26T06:56:12;4.40;;;2.90;;
66093;SDS011;52876;49.394;10.892;2022-10-26T06:58:38;4.50;;;3.40;;
66093;SDS011;52876;49.394;10.892;2022-10-26T07:01:05;3.50;;;3.20;;
66093;SDS011;52876;49.394;10.892;2022-10-26T07:03:34;3.97;;;3.20;;
66093;SDS011;52876;49.394;10.892;2022-10-26T07:06:00;3.63;;;3.33;;
66093;SDS011;52876;49.394;10.892;2022-10-26T07:08:25;4.20;;;3.00;;
66093;SDS011;52876;49.394;10.892;2022-10-26T07:10:51;4.80;;;3.17;;
66093;SDS011;52876;49.394;10.892;2022-10-26T07:13:18;3.97;;;3.03;;
66093;SDS011;52876;49.394;10.892;2022-10-26T07:15:45;4.90;;;3.17;;
66093;SDS011;52876;49.394;10.892;2022-10-26T07:18:11;3.87;;;3.53;;
66093;SDS011;52876;49.394;10.892;2022-10-26T07:20:39;5.60;;;3.40;;
66093;SDS011;52876;49.394;10.892;2022-10-26T07:23:06;3.50;;;3.30;;
66093;SDS011;52876;49.394;10.892;2022-10-26T07:25:34;2.70;;;2.60;;
66093;SDS011;52876;49.394;10.892;2022-10-26T07:28:00;4.13;;;3.77;;
66093;SDS011;52876;49.394;10.892;2022-10-26T07:30:28;3.77;;;3.47;;
66093;SDS011;52876;49.394;10.892;2022-10-26T07:32:57;4.07;;;3.77;;
66093;SDS011;52876;49.394;10.892;2022-10-26T07:35:23;4.00;;;3.60;;
66093;SDS011;52876;49.394;10.892;2022-10-26T07:37:49;3.30;;;3.10;;
66093;SDS011;52876;49.394;10.892;2022-10-26T07:40:16;8.10;;;3.40;;
66093;SDS011;52876;49.394;10.892;2022-10-26T07:42:43;6.30;;;3.37;;
66093;SDS011;52876;49.394;10.892;2022-10-26T07:45:09;3.27;;;3.07;;
66093;SDS011;52876;49.394;10.892;2022-10-26T07:47:38;5.30;;;2.70;;
66093;SDS011;52876;49.394;10.892;2022-10-26T07:50:04;5.80;;;3.77;;
66093;SDS011;52876;49.394;10.892;2022-10-26T07:52:32;3.53;;;3.23;;
66093;SDS011;52876;49.394;10.892;2022-10-26T07:54:57;4.07;;;3.60;;
66093;SDS011;52876;49.394;10.892;2022-10-26T07:57:23;3.70;;;3.40;;
66093;SDS011;52876;49.394;10.892;2022-10-26T07:59:49;4.80;;;3.20;;
66093;SDS011;52876;49.394;10.892;2022-10-26T08:02:14;3.63;;;2.87;;
66093;SDS011;52876;49.394;10.892;2022-10-26T08:04:42;3.23;;;3.00;;
66093;SDS011;52876;49.394;10.892;2022-10-26T08:07:09;6.70;;;3.67;;
66093;SDS011;52876;49.394;10.892;2022-10-26T08:09:35;6.23;;;3.50;;
66093;SDS011;52876;49.394;10.892;2022-10-26T08:12:02;3.37;;;3.07;;
66093;SDS011;52876;49.394;10.892;2022-10-26T08:14:28;3.33;;;3.13;;
66093;SDS011;52876;49.394;10.892;2022-10-26T08:16:56;3.60;;;3.30;;
66093;SDS011;52876;49.394;10.892;2022-10-26T08:19:22;3.23;;;2.80;;
66093;SDS011;52876;49.394;10.892;2022-10-26T08:21:51;3.70;;;3.33;;
66093;SDS011;52876;49.394;10.892;2022-10-26T08:24:17;4.57;;;4.13;;
66093;SDS011;52876;49.394;10.892;2022-10-26T08:26:43;4.87;;;3.80;;
66093;SDS011;52876;49.394;10.892;2022-10-26T08:29:09;3.57;;;3.37;;
66093;SDS011;52876;49.394;10.892;2022-10-26T08:31:36;4.50;;;4.10;;
66093;SDS011;52876;49.394;10.892;2022-10-26T08:34:02;6.30;;;2.90;;
66093;SDS011;52876;49.394;10.892;2022-10-26T08:36:28;3.70;;;3.33;;
66093;SDS011;52876;49.394;10.892;2022-10-26T08:38:56;7.47;;;4.23;;
66093;SDS011;52876;49.394;10.892;2022-10-26T08:41:23;3.30;;;3.00;;
66093;SDS011;52876;49.394;10.892;2022-10-26T08:43:57;6.20;;;4.00;;
66093;SDS011;52876;49.394;10.892;2022-10-26T08:46:28;4.23;;;3.13;;
66093;SDS011;52876;49.394;10.892;2022-10-26T08:48:59;3.50;;;3.20;;
66093;SDS011;52876;49.394;10.892;2022-10-26T08:51:31;4.33;;;2.80;;
66093;SDS011;52876;49.394;10.892;2022-10-26T08:54:00;4.37;;;3.60;;
66093;SDS011;52876;49.394;10.892;2022-10-26T08:56:36;5.43;;;3.30;;
66093;SDS011;52876;49.394;10.892;2022-10-26T08:59:07;6.50;;;3.40;;
66093;SDS011;52876;49.394;10.892;2022-10-26T09:01:39;4.47;;;4.07;;
66093;SDS011;52876;49.394;10.892;2022-10-26T09:04:05;5.40;;;3.80;;
66093;SDS011;52876;49.394;10.892;2022-10-26T09:06:39;4.27;;;3.93;;
66093;SDS011;52876;49.394;10.892;2022-10-26T09:09:14;3.87;;;2.93;;
66093;SDS011;52876;49.394;10.892;2022-10-26T09:11:50;3.60;;;3.30;;
66093;SDS011;52876;49.394;10.892;2022-10-26T09:14:28;4.77;;;4.30;;
66093;SDS011;52876;49.394;10.892;2022-10-26T09:17:04;4.50;;;3.63;;
66093;SDS011;52876;49.394;10.892;2022-10-26T09:19:45;6.30;;;3.77;;
66093;SDS011;52876;49.394;10.892;2022-10-26T09:22:25;3.47;;;3.17;;
66093;SDS011;52876;49.394;10.892;2022-10-26T09:24:59;3.17;;;2.97;;
66093;SDS011;52876;49.394;10.892;2022-10-26T09:27:33;4.07;;;3.50;;
66093;SDS011;52876;49.394;10.892;2022-10-26T09:30:10;5.10;;;4.20;;
66093;SDS011;52876;49.394;10.892;2022-10-26T09:32:41;4.57;;;3.87;;
66093;SDS011;52876;49.394;10.892;2022-10-26T09:35:12;8.13;;;3.40;;
66093;SDS011;52876;49.394;10.892;2022-10-26T09:37:43;3.40;;;3.10;;
66093;SDS011;52876;49.394;10.892;2022-10-26T09:40:17;3.57;;;3.27;;
66093;SDS011;52876;49.394;10.892;2022-10-26T09:42:49;3.30;;;2.87;;
66093;SDS011;52876;49.394;10.892;2022-10-26T09:45:23;3.90;;;3.60;;
66093;SDS011;52876;49.394;10.892;2022-10-26T09:47:53;3.90;;;3.13;;
66093;SDS011;52876;49.394;10.892;2022-10-26T09:50:26;4.90;;;3.90;;
66093;SDS011;52876;49.394;10.892;2022-10-26T09:52:56;4.77;;;3.77;;
66093;SDS011;52876;49.394;10.892;2022-10-26T09:55:25;3.63;;;2.90;;
66093;SDS011;52876;49.394;10.892;2022-10-26T09:57:51;3.50;;;3.20;;
66093;SDS011;52876;49.394;10.892;2022-10-26T10:00:22;3.20;;;3.00;;
66093;SDS011;52876;49.394;10.892;2022-10-26T10:02:50;4.10;;;3.00;;
66093;SDS011;52876;49.394;10.892;2022-10-26T10:05:22;4.50;;;2.83;;
66093;SDS011;52876;49.394;10.892;2022-10-26T10:07:49;3.63;;;3.17;;
66093;SDS011;52876;49.394;10.892;2022-10-26T10:10:17;3.50;;;2.70;;
66093;SDS011;52876;49.394;10.892;2022-10-26T10:12:48;6.03;;;3.13;;
66093;SDS011;52876;49.394;10.892;2022-10-26T10:15:16;4.20;;;3.13;;
66093;SDS011;52876;49.394;10.892;2022-10-26T10:17:48;3.47;;;2.90;;
66093;SDS011;52876;49.394;10.892;2022-10-26T10:20:19;4.47;;;3.10;;
66093;SDS011;52876;49.394;10.892;2022-10-26T10:22:55;3.00;;;2.70;;
66093;SDS011;52876;49.394;10.892;2022-10-26T10:25:30;6.27;;;3.27;;
66093;SDS011;52876;49.394;10.892;2022-10-26T10:27:59;4.13;;;2.70;;
66093;SDS011;52876;49.394;10.892;2022-10-26T10:30:28;3.53;;;3.23;;
66093;SDS011;52876;49.394;10.892;2022-10-26T10:33:05;5.20;;;2.50;;
66093;SDS011;52876;49.394;10.892;2022-10-26T10:35:32;3.30;;;2.80;;
66093;SDS011;52876;49.394;10.892;2022-10-26T10:37:58;4.73;;;3.20;;
66093;SDS011;52876;49.394;10.892;2022-10-26T10:40:25;3.17;;;2.87;;
66093;SDS011;52876;49.394;10.892;2022-10-26T10:42:54;3.17;;;2.87;;
66093;SDS011;52876;49.394;10.892;2022-10-26T10:45:36;3.40;;;2.87;;
66093;SDS011;52876;49.394;10.892;2022-10-26T10:48:03;3.53;;;3.17;;
66093;SDS011;52876;49.394;10.892;2022-10-26T10:50:37;4.27;;;3.60;;
66093;SDS011;52876;49.394;10.892;2022-10-26T10:53:14;3.33;;;3.03;;
66093;SDS011;52876;49.394;10.892;2022-10-26T10:55:47;3.33;;;2.70;;
66093;SDS011;52876;49.394;10.892;2022-10-26T10:58:22;4.33;;;2.93;;
66093;SDS011;52876;49.394;10.892;2022-10-26T11:00:54;3.10;;;2.90;;
66093;SDS011;52876;49.394;10.892;2022-10-26T11:03:39;3.20;;;2.70;;
66093;SDS011;52876;49.394;10.892;2022-10-26T11:06:14;4.40;;;3.00;;
66093;SDS011;52876;49.394;10.892;2022-10-26T11:08:45;4.63;;;2.97;;
66093;SDS011;52876;49.394;10.892;2022-10-26T11:11:14;4.80;;;3.20;;
66093;SDS011;52876;49.394;10.892;2022-10-26T11:13:46;3.40;;;2.70;;
66093;SDS011;52876;49.394;10.892;2022-10-26T11:16:18;4.43;;;2.70;;
66093;SDS011;52876;49.394;10.892;2022-10-26T11:18:47;2.30;;;2.10;;
66093;SDS011;52876;49.394;10.892;2022-10-26T11:21:22;5.10;;;3.00;;
66093;SDS011;52876;49.394;10.892;2022-10-26T11:23:51;5.03;;;2.90;;
66093;SDS011;52876;49.394;10.892;2022-10-26T11:26:27;2.80;;;2.33;;
66093;SDS011;52876;49.394;10.892;2022-10-26T11:29:00;5.47;;;2.57;;
66093;SDS011;52876;49.394;10.892;2022-10-26T11:31:30;3.53;;;2.80;;
66093;SDS011;52876;49.394;10.892;2022-10-26T11:34:07;3.70;;;2.33;;
66093;SDS011;52876;49.394;10.892;2022-10-26T11:36:40;11.17;;;3.40;;
66093;SDS011;52876;49.394;10.892;2022-10-26T11:39:13;4.70;;;2.70;;
66093;SDS011;52876;49.394;10.892;2022-10-26T11:41:47;4.30;;;2.60;;
66093;SDS011;52876;49.394;10.892;2022-10-26T11:44:20;2.60;;;2.23;;
66093;SDS011;52876;49.394;10.892;2022-10-26T11:46:52;5.60;;;2.87;;
66093;SDS011;52876;49.394;10.892;2022-10-26T11:49:22;4.23;;;3.03;;
66093;SDS011;52876;49.394;10.892;2022-10-26T11:51:55;3.60;;;2.60;;
66093;SDS011;52876;49.394;10.892;2022-10-26T11:54:28;5.00;;;3.20;;
66093;SDS011;52876;49.394;10.892;2022-10-26T11:56:58;4.97;;;4.03;;
66093;SDS011;52876;49.394;10.892;2022-10-26T11:59:27;11.37;;;8.87;;
66093;SDS011;52876;49.394;10.892;2022-10-26T12:01:56;3.40;;;3.07;;
66093;SDS011;52876;49.394;10.892;2022-10-26T12:04:27;6.90;;;3.50;;
66093;SDS011;52876;49.394;10.892;2022-10-26T12:06:55;4.87;;;3.77;;
66093;SDS011;52876;49.394;10.892;2022-10-26T12:09:25;8.17;;;3.13;;
66093;SDS011;52876;49.394;10.892;2022-10-26T12:11:56;3.33;;;2.70;;
66093;SDS011;52876;49.394;10.892;2022-10-26T12:14:29;2.97;;;2.67;;
66093;SDS011;52876;49.394;10.892;2022-10-26T12:17:05;3.73;;;3.03;;
66093;SDS011;52876;49.394;10.892;2022-10-26T12:19:38;4.00;;;3.20;;
66093;SDS011;52876;49.394;10.892;2022-10-26T12:22:10;8.10;;;3.63;;
66093;SDS011;52876;49.394;10.892;2022-10-26T12:24:42;4.30;;;3.90;;
66093;SDS011;52876;49.394;10.892;2022-10-26T12:30:12;6.57;;;3.50;;
66093;SDS011;52876;49.394;10.892;2022-10-26T12:32:49;8.70;;;3.10;;
66093;SDS011;52876;49.394;10.892;2022-10-26T12:35:35;5.83;;;3.23;;
66093;SDS011;52876;49.394;10.892;2022-10-26T12:41:22;6.00;;;3.13;;
66093;SDS011;52876;49.394;10.892;2022-10-26T12:43:48;3.30;;;3.00;;
66093;SDS011;52876;49.394;10.892;2022-10-26T12:52:20;3.70;;;3.20;;
66093;SDS011;52876;49.394;10.892;2022-10-26T12:57:59;7.17;;;3.10;;
66093;SDS011;52876;49.394;10.892;2022-10-26T13:00:40;6.80;;;2.63;;
66093;SDS011;52876;49.394;10.892;2022-10-26T13:03:15;3.80;;;2.80;;
66093;SDS011;52876;49.394;10.892;2022-10-26T13:06:02;3.60;;;2.80;;
66093;SDS011;52876;49.394;10.892;2022-10-26T13:08:39;10.23;;;2.80;;
66093;SDS011;52876;49.394;10.892;2022-10-26T13:11:11;4.73;;;2.90;;
66093;SDS011;52876;49.394;10.892;2022-10-26T13:13:41;6.07;;;3.83;;
66093;SDS011;52876;49.394;10.892;2022-10-26T13:16:09;4.20;;;2.83;;
66093;SDS011;52876;49.394;10.892;2022-10-26T13:18:41;6.80;;;3.20;;
66093;SDS011;52876;49.394;10.892;2022-10-26T13:21:08;6.13;;;3.20;;
66093;SDS011;52876;49.394;10.892;2022-10-26T13:23:36;5.00;;;3.57;;
66093;SDS011;52876;49.394;10.892;2022-10-26T13:26:06;6.77;;;3.07;;
66093;SDS011;52876;49.394;10.892;2022-10-26T13:28:44;6.50;;;2.70;;
66093;SDS011;52876;49.394;10.892;2022-10-26T13:31:19;4.90;;;3.40;;
66093;SDS011;52876;49.394;10.892;2022-10-26T13:34:20;4.33;;;2.73;;
66093;SDS011;52876;49.394;10.892;2022-10-26T13:36:50;3.33;;;2.60;;
66093;SDS011;52876;49.394;10.892;2022-10-26T13:39:25;4.40;;;2.80;;
66093;SDS011;52876;49.394;10.892;2022-10-26T13:41:53;4.00;;;3.00;;
66093;SDS011;52876;49.394;10.892;2022-10-26T13:44:22;6.27;;;3.20;;
66093;SDS011;52876;49.394;10.892;2022-10-26T13:46:53;5.50;;;2.97;;
66093;SDS011;52876;49.394;10.892;2022-10-26T13:49:26;5.77;;;3.30;;
66093;SDS011;52876;49.394;10.892;2022-10-26T13:51:54;5.83;;;2.93;;
66093;SDS011;52876;49.394;10.892;2022-10-26T13:54:25;3.80;;;2.73;;
66093;SDS011;52876;49.394;10.892;2022-10-26T13:57:00;5.37;;;2.80;;
66093;SDS011;52876;49.394;10.892;2022-10-26T13:59:36;5.00;;;2.97;;
66093;SDS011;52876;49.394;10.892;2022-10-26T14:02:13;4.80;;;2.90;;
66093;SDS011;52876;49.394;10.892;2022-10-26T14:04:45;2.70;;;2.50;;
66093;SDS011;52876;49.394;10.892;2022-10-26T14:07:17;2.60;;;2.40;;
66093;SDS011;52876;49.394;10.892;2022-10-26T14:09:48;9.67;;;4.60;;
66093;SDS011;52876;49.394;10.892;2022-10-26T14:12:15;31.03;;;11.27;;
66093;SDS011;52876;49.394;10.892;2022-10-26T14:14:41;61.77;;;18.73;;
66093;SDS011;52876;49.394;10.892;2022-10-26T14:17:13;31.03;;;11.33;;
66093;SDS011;52876;49.394;10.892;2022-10-26T14:19:42;74.97;;;20.80;;
66093;SDS011;52876;49.394;10.892;2022-10-26T14:22:14;31.53;;;11.63;;
66093;SDS011;52876;49.394;10.892;2022-10-26T14:24:48;63.03;;;19.50;;
66093;SDS011;52876;49.394;10.892;2022-10-26T14:27:16;27.20;;;10.40;;
66093;SDS011;52876;49.394;10.892;2022-10-26T14:29:42;59.60;;;17.83;;
66093;SDS011;52876;49.394;10.892;2022-10-26T14:32:18;28.03;;;9.87;;
66093;SDS011;52876;49.394;10.892;2022-10-26T14:34:44;47.63;;;14.13;;
66093;SDS011;52876;49.394;10.892;2022-10-26T14:37:10;39.87;;;12.77;;
66093;SDS011;52876;49.394;10.892;2022-10-26T14:39:44;67.73;;;20.00;;
66093;SDS011;52876;49.394;10.892;2022-10-26T14:42:18;45.60;;;13.90;;
66093;SDS011;52876;49.394;10.892;2022-10-26T14:44:48;56.67;;;16.03;;
66093;SDS011;52876;49.394;10.892;2022-10-26T14:47:14;54.67;;;15.40;;
66093;SDS011;52876;49.394;10.892;2022-10-26T14:49:44;79.10;;;21.93;;
66093;SDS011;52876;49.394;10.892;2022-10-26T14:52:10;46.20;;;13.20;;
66093;SDS011;52876;49.394;10.892;2022-10-26T14:54:41;85.10;;;23.40;;
66093;SDS011;52876;49.394;10.892;2022-10-26T14:59:59;67.30;;;18.97;;
66093;SDS011;52876;49.394;10.892;2022-10-26T15:02:27;51.07;;;15.80;;
66093;SDS011;52876;49.394;10.892;2022-10-26T15:04:57;41.60;;;12.87;;
66093;SDS011;52876;49.394;10.892;2022-10-26T15:07:33;27.57;;;9.53;;
66093;SDS011;52876;49.394;10.892;2022-10-26T15:09:59;36.70;;;12.30;;
66093;SDS011;52876;49.394;10.892;2022-10-26T15:12:28;36.00;;;12.30;;